sensor_id;sensor_type;location;lat;lon;timestamp;temperature;humidity
14908;DHT22;7545;52.092;7.006;2023-05-14T00:00:47;16.40;99.90
14908;DHT22;7545;52.092;7.006;2023-05-14T00:03:13;16.40;99.90
14908;DHT22;7545;52.092;7.006;2023-05-14T00:05:39;16.30;99.90
14908;DHT22;7545;52.092;7.006;2023-05-14T00:08:04;16.30;99.90
14908;DHT22;7545;52.092;7.006;2023-05-14T00:10:30;16.30;99.90
14908;DHT22;7545;52.092;7.006;2023-05-14T00:12:56;16.30;99.90
14908;DHT22;7545;52.092;7.006;2023-05-14T00:15:21;16.20;99.90
14908;DHT22;7545;52.092;7.006;2023-05-14T00:17:47;16.20;99.90
14908;DHT22;7545;52.092;7.006;2023-05-14T00:20:13;16.20;99.90
14908;DHT22;7545;52.092;7.006;2023-05-14T00:22:38;16.10;99.90
14908;DHT22;7545;52.092;7.006;2023-05-14T00:25:06;16.10;99.90
14908;DHT22;7545;52.092;7.006;2023-05-14T00:27:32;16.10;99.90
14908;DHT22;7545;52.092;7.006;2023-05-14T00:29:58;16.10;99.90
14908;DHT22;7545;52.092;7.006;2023-05-14T00:32:24;16.10;99.90
14908;DHT22;7545;52.092;7.006;2023-05-14T00:34:49;16.00;99.90
14908;DHT22;7545;52.092;7.006;2023-05-14T00:37:15;16.00;99.90
14908;DHT22;7545;52.092;7.006;2023-05-14T00:39:40;16.00;99.90
14908;DHT22;7545;52.092;7.006;2023-05-14T00:42:06;15.90;99.90
14908;DHT22;7545;52.092;7.006;2023-05-14T00:44:32;15.90;99.90
14908;DHT22;7545;52.092;7.006;2023-05-14T00:46:58;15.80;99.90
14908;DHT22;7545;52.092;7.006;2023-05-14T00:49:24;15.80;99.90
14908;DHT22;7545;52.092;7.006;2023-05-14T00:51:51;15.70;99.90
14908;DHT22;7545;52.092;7.006;2023-05-14T00:54:18;15.70;99.90
14908;DHT22;7545;52.092;7.006;2023-05-14T00:56:45;15.60;99.90
14908;DHT22;7545;52.092;7.006;2023-05-14T00:59:11;15.60;99.90
14908;DHT22;7545;52.092;7.006;2023-05-14T01:01:37;15.60;99.90
14908;DHT22;7545;52.092;7.006;2023-05-14T01:04:03;15.50;99.90
14908;DHT22;7545;52.092;7.006;2023-05-14T01:09:45;15.40;99.90
14908;DHT22;7545;52.092;7.006;2023-05-14T01:15:14;15.30;99.90
14908;DHT22;7545;52.092;7.006;2023-05-14T01:17:49;15.30;99.90
14908;DHT22;7545;52.092;7.006;2023-05-14T01:20:16;15.30;99.90
14908;DHT22;7545;52.092;7.006;2023-05-14T01:22:42;15.30;99.90
14908;DHT22;7545;52.092;7.006;2023-05-14T01:25:07;15.20;99.90
14908;DHT22;7545;52.092;7.006;2023-05-14T01:27:37;15.30;99.90
14908;DHT22;7545;52.092;7.006;2023-05-14T01:32:57;15.20;99.90
14908;DHT22;7545;52.092;7.006;2023-05-14T01:35:28;15.10;99.90
14908;DHT22;7545;52.092;7.006;2023-05-14T01:38:04;15.10;99.90
14908;DHT22;7545;52.092;7.006;2023-05-14T01:40:31;15.10;99.90
14908;DHT22;7545;52.092;7.006;2023-05-14T01:42:58;15.10;99.90
14908;DHT22;7545;52.092;7.006;2023-05-14T01:45:24;15.10;99.90
14908;DHT22;7545;52.092;7.006;2023-05-14T01:47:50;15.10;99.90
14908;DHT22;7545;52.092;7.006;2023-05-14T01:50:17;15.00;99.90
14908;DHT22;7545;52.092;7.006;2023-05-14T01:52:42;15.10;99.90
14908;DHT22;7545;52.092;7.006;2023-05-14T01:55:08;15.00;99.90
14908;DHT22;7545;52.092;7.006;2023-05-14T01:57:34;15.00;99.90
14908;DHT22;7545;52.092;7.006;2023-05-14T02:00:00;14.90;99.90
14908;DHT22;7545;52.092;7.006;2023-05-14T02:02:25;14.90;99.90
14908;DHT22;7545;52.092;7.006;2023-05-14T02:04:51;14.90;99.90
14908;DHT22;7545;52.092;7.006;2023-05-14T02:07:16;14.90;99.90
14908;DHT22;7545;52.092;7.006;2023-05-14T02:09:42;14.90;99.90
14908;DHT22;7545;52.092;7.006;2023-05-14T02:12:08;14.90;99.90
14908;DHT22;7545;52.092;7.006;2023-05-14T02:14:35;14.80;99.90
14908;DHT22;7545;52.092;7.006;2023-05-14T02:17:01;14.90;99.90
14908;DHT22;7545;52.092;7.006;2023-05-14T02:19:27;14.90;99.90
14908;DHT22;7545;52.092;7.006;2023-05-14T02:21:53;14.80;99.90
14908;DHT22;7545;52.092;7.006;2023-05-14T02:24:19;14.80;99.90
14908;DHT22;7545;52.092;7.006;2023-05-14T02:26:44;14.80;99.90
14908;DHT22;7545;52.092;7.006;2023-05-14T02:29:10;14.80;99.90
14908;DHT22;7545;52.092;7.006;2023-05-14T02:31:36;14.70;99.90
14908;DHT22;7545;52.092;7.006;2023-05-14T02:34:02;14.70;99.90
14908;DHT22;7545;52.092;7.006;2023-05-14T02:36:28;14.70;99.90
14908;DHT22;7545;52.092;7.006;2023-05-14T02:38:53;14.70;99.90
14908;DHT22;7545;52.092;7.006;2023-05-14T02:41:19;14.60;99.90
14908;DHT22;7545;52.092;7.006;2023-05-14T02:43:48;14.60;99.90
14908;DHT22;7545;52.092;7.006;2023-05-14T02:46:14;14.60;99.90
14908;DHT22;7545;52.092;7.006;2023-05-14T02:48:40;14.50;99.90
14908;DHT22;7545;52.092;7.006;2023-05-14T02:51:05;14.50;99.90
14908;DHT22;7545;52.092;7.006;2023-05-14T02:53:32;14.50;99.90
14908;DHT22;7545;52.092;7.006;2023-05-14T02:55:57;14.40;99.90
14908;DHT22;7545;52.092;7.006;2023-05-14T02:58:23;14.30;99.90
14908;DHT22;7545;52.092;7.006;2023-05-14T03:00:48;14.30;99.90
14908;DHT22;7545;52.092;7.006;2023-05-14T03:03:14;14.30;99.90
14908;DHT22;7545;52.092;7.006;2023-05-14T03:05:40;14.20;99.90
14908;DHT22;7545;52.092;7.006;2023-05-14T03:08:08;14.20;99.90
14908;DHT22;7545;52.092;7.006;2023-05-14T03:10:34;14.20;99.90
14908;DHT22;7545;52.092;7.006;2023-05-14T03:12:59;14.10;99.90
14908;DHT22;7545;52.092;7.006;2023-05-14T03:15:25;14.10;99.90
14908;DHT22;7545;52.092;7.006;2023-05-14T03:17:51;14.10;99.90
14908;DHT22;7545;52.092;7.006;2023-05-14T03:20:16;14.10;99.90
14908;DHT22;7545;52.092;7.006;2023-05-14T03:22:42;14.00;99.90
14908;DHT22;7545;52.092;7.006;2023-05-14T03:25:08;14.00;99.90
14908;DHT22;7545;52.092;7.006;2023-05-14T03:27:34;14.00;99.90
14908;DHT22;7545;52.092;7.006;2023-05-14T03:29:59;13.90;99.90
14908;DHT22;7545;52.092;7.006;2023-05-14T03:32:25;13.90;99.90
14908;DHT22;7545;52.092;7.006;2023-05-14T03:34:51;13.90;99.90
14908;DHT22;7545;52.092;7.006;2023-05-14T03:37:16;13.80;99.90
14908;DHT22;7545;52.092;7.006;2023-05-14T03:39:42;13.80;99.90
14908;DHT22;7545;52.092;7.006;2023-05-14T03:42:08;13.80;99.90
14908;DHT22;7545;52.092;7.006;2023-05-14T03:44:33;13.80;99.90
14908;DHT22;7545;52.092;7.006;2023-05-14T03:46:59;13.80;99.90
14908;DHT22;7545;52.092;7.006;2023-05-14T03:49:24;13.80;99.90
14908;DHT22;7545;52.092;7.006;2023-05-14T03:51:50;13.80;99.90
14908;DHT22;7545;52.092;7.006;2023-05-14T03:54:15;13.70;99.90
14908;DHT22;7545;52.092;7.006;2023-05-14T03:56:41;13.70;99.90
14908;DHT22;7545;52.092;7.006;2023-05-14T03:59:07;13.70;99.90
14908;DHT22;7545;52.092;7.006;2023-05-14T04:01:32;13.70;99.90
14908;DHT22;7545;52.092;7.006;2023-05-14T04:03:58;13.70;99.90
14908;DHT22;7545;52.092;7.006;2023-05-14T04:06:23;13.60;99.90
14908;DHT22;7545;52.092;7.006;2023-05-14T04:08:49;13.60;99.90
14908;DHT22;7545;52.092;7.006;2023-05-14T04:11:15;13.60;99.90
14908;DHT22;7545;52.092;7.006;2023-05-14T04:13:40;13.60;99.90
14908;DHT22;7545;52.092;7.006;2023-05-14T04:16:06;13.60;99.90
14908;DHT22;7545;52.092;7.006;2023-05-14T04:18:31;13.60;99.90
14908;DHT22;7545;52.092;7.006;2023-05-14T04:21:00;13.60;99.90
14908;DHT22;7545;52.092;7.006;2023-05-14T04:23:25;13.60;99.90
14908;DHT22;7545;52.092;7.006;2023-05-14T04:25:51;13.60;99.90
14908;DHT22;7545;52.092;7.006;2023-05-14T04:28:16;13.60;99.90
14908;DHT22;7545;52.092;7.006;2023-05-14T04:30:42;13.60;99.90
14908;DHT22;7545;52.092;7.006;2023-05-14T04:33:07;13.60;99.90
14908;DHT22;7545;52.092;7.006;2023-05-14T04:35:33;13.60;99.90
14908;DHT22;7545;52.092;7.006;2023-05-14T04:37:59;13.50;99.90
14908;DHT22;7545;52.092;7.006;2023-05-14T04:40:24;13.50;99.90
14908;DHT22;7545;52.092;7.006;2023-05-14T04:42:50;13.60;99.90
14908;DHT22;7545;52.092;7.006;2023-05-14T04:45:15;13.60;99.90
14908;DHT22;7545;52.092;7.006;2023-05-14T04:47:41;13.60;99.90
14908;DHT22;7545;52.092;7.006;2023-05-14T04:50:08;13.60;99.90
14908;DHT22;7545;52.092;7.006;2023-05-14T04:52:34;13.60;99.90
14908;DHT22;7545;52.092;7.006;2023-05-14T04:55:00;13.50;99.90
14908;DHT22;7545;52.092;7.006;2023-05-14T04:57:25;13.60;99.90
14908;DHT22;7545;52.092;7.006;2023-05-14T04:59:51;13.60;99.90
14908;DHT22;7545;52.092;7.006;2023-05-14T05:02:17;13.60;99.90
14908;DHT22;7545;52.092;7.006;2023-05-14T05:04:42;13.70;99.90
14908;DHT22;7545;52.092;7.006;2023-05-14T05:07:08;13.80;99.90
14908;DHT22;7545;52.092;7.006;2023-05-14T05:09:34;13.80;99.90
14908;DHT22;7545;52.092;7.006;2023-05-14T05:11:59;13.80;99.90
14908;DHT22;7545;52.092;7.006;2023-05-14T05:14:26;13.80;99.90
14908;DHT22;7545;52.092;7.006;2023-05-14T05:16:51;13.80;99.90
14908;DHT22;7545;52.092;7.006;2023-05-14T05:19:17;13.90;99.90
14908;DHT22;7545;52.092;7.006;2023-05-14T05:21:43;13.90;99.90
14908;DHT22;7545;52.092;7.006;2023-05-14T05:24:08;13.90;99.90
14908;DHT22;7545;52.092;7.006;2023-05-14T05:26:34;14.00;99.90
14908;DHT22;7545;52.092;7.006;2023-05-14T05:29:03;14.00;99.90
14908;DHT22;7545;52.092;7.006;2023-05-14T05:31:30;14.10;99.90
14908;DHT22;7545;52.092;7.006;2023-05-14T05:33:59;14.10;99.90
14908;DHT22;7545;52.092;7.006;2023-05-14T05:36:32;14.20;99.90
14908;DHT22;7545;52.092;7.006;2023-05-14T05:38:58;14.20;99.90
14908;DHT22;7545;52.092;7.006;2023-05-14T05:41:23;14.20;99.90
14908;DHT22;7545;52.092;7.006;2023-05-14T05:43:49;14.30;99.90
14908;DHT22;7545;52.092;7.006;2023-05-14T05:46:15;14.30;99.90
14908;DHT22;7545;52.092;7.006;2023-05-14T05:48:40;14.40;99.90
14908;DHT22;7545;52.092;7.006;2023-05-14T05:51:06;14.50;99.90
14908;DHT22;7545;52.092;7.006;2023-05-14T05:53:32;14.50;99.90
14908;DHT22;7545;52.092;7.006;2023-05-14T05:55:57;14.60;99.90
14908;DHT22;7545;52.092;7.006;2023-05-14T05:58:23;14.70;99.90
14908;DHT22;7545;52.092;7.006;2023-05-14T06:00:48;14.70;99.90
14908;DHT22;7545;52.092;7.006;2023-05-14T06:03:14;14.80;99.90
14908;DHT22;7545;52.092;7.006;2023-05-14T06:05:40;14.80;99.90
14908;DHT22;7545;52.092;7.006;2023-05-14T06:08:05;14.90;99.90
14908;DHT22;7545;52.092;7.006;2023-05-14T06:10:33;15.00;99.90
14908;DHT22;7545;52.092;7.006;2023-05-14T06:12:59;15.00;99.90
14908;DHT22;7545;52.092;7.006;2023-05-14T06:15:24;15.00;99.90
14908;DHT22;7545;52.092;7.006;2023-05-14T06:17:50;15.10;99.90
14908;DHT22;7545;52.092;7.006;2023-05-14T06:20:16;15.10;99.90
14908;DHT22;7545;52.092;7.006;2023-05-14T06:22:41;15.20;99.90
14908;DHT22;7545;52.092;7.006;2023-05-14T06:25:07;15.30;99.90
14908;DHT22;7545;52.092;7.006;2023-05-14T06:27:33;15.30;99.90
14908;DHT22;7545;52.092;7.006;2023-05-14T06:29:58;15.40;99.90
14908;DHT22;7545;52.092;7.006;2023-05-14T06:32:24;15.40;99.90
14908;DHT22;7545;52.092;7.006;2023-05-14T06:34:50;15.50;99.90
14908;DHT22;7545;52.092;7.006;2023-05-14T06:37:15;15.50;99.90
14908;DHT22;7545;52.092;7.006;2023-05-14T06:39:41;15.60;99.90
14908;DHT22;7545;52.092;7.006;2023-05-14T06:42:14;15.60;99.90
14908;DHT22;7545;52.092;7.006;2023-05-14T06:44:40;15.70;99.90
14908;DHT22;7545;52.092;7.006;2023-05-14T06:47:06;15.70;99.90
14908;DHT22;7545;52.092;7.006;2023-05-14T06:49:33;15.80;99.90
14908;DHT22;7545;52.092;7.006;2023-05-14T06:51:59;15.80;99.90
14908;DHT22;7545;52.092;7.006;2023-05-14T06:54:24;15.80;99.90
14908;DHT22;7545;52.092;7.006;2023-05-14T06:56:50;15.90;99.90
14908;DHT22;7545;52.092;7.006;2023-05-14T06:59:16;16.00;99.90
14908;DHT22;7545;52.092;7.006;2023-05-14T07:01:41;16.00;99.90
14908;DHT22;7545;52.092;7.006;2023-05-14T07:04:07;16.00;99.90
14908;DHT22;7545;52.092;7.006;2023-05-14T07:06:32;16.10;99.90
14908;DHT22;7545;52.092;7.006;2023-05-14T07:09:00;16.10;99.90
14908;DHT22;7545;52.092;7.006;2023-05-14T07:11:26;16.10;99.90
14908;DHT22;7545;52.092;7.006;2023-05-14T07:13:52;16.20;99.90
14908;DHT22;7545;52.092;7.006;2023-05-14T07:16:17;16.20;99.90
14908;DHT22;7545;52.092;7.006;2023-05-14T07:18:44;16.20;99.90
14908;DHT22;7545;52.092;7.006;2023-05-14T07:21:10;16.20;99.90
14908;DHT22;7545;52.092;7.006;2023-05-14T07:23:35;16.30;99.90
14908;DHT22;7545;52.092;7.006;2023-05-14T07:26:03;16.40;99.90
14908;DHT22;7545;52.092;7.006;2023-05-14T07:28:30;16.40;99.90
14908;DHT22;7545;52.092;7.006;2023-05-14T07:30:56;16.50;99.90
14908;DHT22;7545;52.092;7.006;2023-05-14T07:33:22;16.60;99.90
14908;DHT22;7545;52.092;7.006;2023-05-14T07:35:47;16.60;99.90
14908;DHT22;7545;52.092;7.006;2023-05-14T07:38:13;16.70;99.90
14908;DHT22;7545;52.092;7.006;2023-05-14T07:40:39;16.70;99.90
14908;DHT22;7545;52.092;7.006;2023-05-14T07:43:08;16.80;99.90
14908;DHT22;7545;52.092;7.006;2023-05-14T07:45:35;16.80;99.90
14908;DHT22;7545;52.092;7.006;2023-05-14T07:48:01;16.90;99.90
14908;DHT22;7545;52.092;7.006;2023-05-14T07:50:27;16.90;99.90
14908;DHT22;7545;52.092;7.006;2023-05-14T07:52:52;17.00;99.90
14908;DHT22;7545;52.092;7.006;2023-05-14T07:55:18;17.00;99.90
14908;DHT22;7545;52.092;7.006;2023-05-14T07:57:44;17.10;99.90
14908;DHT22;7545;52.092;7.006;2023-05-14T08:00:10;17.20;99.90
14908;DHT22;7545;52.092;7.006;2023-05-14T08:02:36;17.30;99.90
14908;DHT22;7545;52.092;7.006;2023-05-14T08:05:02;17.30;99.90
14908;DHT22;7545;52.092;7.006;2023-05-14T08:07:28;17.40;99.90
14908;DHT22;7545;52.092;7.006;2023-05-14T08:09:54;17.50;99.90
14908;DHT22;7545;52.092;7.006;2023-05-14T08:12:20;17.60;99.90
14908;DHT22;7545;52.092;7.006;2023-05-14T08:14:46;17.60;99.90
14908;DHT22;7545;52.092;7.006;2023-05-14T08:17:11;17.70;99.90
14908;DHT22;7545;52.092;7.006;2023-05-14T08:19:37;17.80;99.90
14908;DHT22;7545;52.092;7.006;2023-05-14T08:22:03;17.90;99.90
14908;DHT22;7545;52.092;7.006;2023-05-14T08:24:29;18.00;99.90
14908;DHT22;7545;52.092;7.006;2023-05-14T08:26:54;18.00;99.90
14908;DHT22;7545;52.092;7.006;2023-05-14T08:29:20;18.10;99.90
14908;DHT22;7545;52.092;7.006;2023-05-14T08:31:47;18.20;99.90
14908;DHT22;7545;52.092;7.006;2023-05-14T08:34:12;18.20;99.90
14908;DHT22;7545;52.092;7.006;2023-05-14T08:36:38;18.30;99.90
14908;DHT22;7545;52.092;7.006;2023-05-14T08:39:04;18.40;99.90
14908;DHT22;7545;52.092;7.006;2023-05-14T08:41:32;18.40;99.90
14908;DHT22;7545;52.092;7.006;2023-05-14T08:44:12;18.40;99.90
14908;DHT22;7545;52.092;7.006;2023-05-14T08:46:38;18.60;99.90
14908;DHT22;7545;52.092;7.006;2023-05-14T08:49:37;18.60;99.90
14908;DHT22;7545;52.092;7.006;2023-05-14T08:52:05;18.70;99.90
14908;DHT22;7545;52.092;7.006;2023-05-14T08:54:31;18.80;99.90
14908;DHT22;7545;52.092;7.006;2023-05-14T08:56:57;18.90;99.90
14908;DHT22;7545;52.092;7.006;2023-05-14T08:59:23;19.00;99.90
14908;DHT22;7545;52.092;7.006;2023-05-14T09:01:52;19.10;99.90
14908;DHT22;7545;52.092;7.006;2023-05-14T09:04:22;19.20;99.90
14908;DHT22;7545;52.092;7.006;2023-05-14T09:06:51;19.30;99.90
14908;DHT22;7545;52.092;7.006;2023-05-14T09:09:17;19.40;99.90
14908;DHT22;7545;52.092;7.006;2023-05-14T09:11:47;19.50;99.90
14908;DHT22;7545;52.092;7.006;2023-05-14T09:14:12;19.60;99.90
14908;DHT22;7545;52.092;7.006;2023-05-14T09:16:39;19.70;99.90
14908;DHT22;7545;52.092;7.006;2023-05-14T09:19:06;19.80;99.90
14908;DHT22;7545;52.092;7.006;2023-05-14T09:21:33;19.90;99.90
14908;DHT22;7545;52.092;7.006;2023-05-14T09:23:59;20.00;99.90
14908;DHT22;7545;52.092;7.006;2023-05-14T09:26:26;20.10;99.90
14908;DHT22;7545;52.092;7.006;2023-05-14T09:28:56;20.20;99.90
14908;DHT22;7545;52.092;7.006;2023-05-14T09:31:22;20.30;99.90
14908;DHT22;7545;52.092;7.006;2023-05-14T09:33:52;20.40;99.90
14908;DHT22;7545;52.092;7.006;2023-05-14T09:36:18;20.40;99.90
14908;DHT22;7545;52.092;7.006;2023-05-14T09:38:44;20.40;99.90
14908;DHT22;7545;52.092;7.006;2023-05-14T09:41:10;20.50;99.90
14908;DHT22;7545;52.092;7.006;2023-05-14T09:43:36;20.60;99.90
14908;DHT22;7545;52.092;7.006;2023-05-14T09:46:01;20.70;99.90
14908;DHT22;7545;52.092;7.006;2023-05-14T09:48:27;20.80;99.90
14908;DHT22;7545;52.092;7.006;2023-05-14T09:50:53;20.80;99.90
14908;DHT22;7545;52.092;7.006;2023-05-14T09:53:19;20.90;99.90
14908;DHT22;7545;52.092;7.006;2023-05-14T09:55:45;21.00;99.90
14908;DHT22;7545;52.092;7.006;2023-05-14T09:58:11;21.10;99.90
14908;DHT22;7545;52.092;7.006;2023-05-14T10:00:38;21.10;99.90
14908;DHT22;7545;52.092;7.006;2023-05-14T10:03:07;21.20;99.90
14908;DHT22;7545;52.092;7.006;2023-05-14T10:05:35;21.30;99.90
14908;DHT22;7545;52.092;7.006;2023-05-14T10:08:07;21.40;99.90
14908;DHT22;7545;52.092;7.006;2023-05-14T10:10:34;21.40;99.90
14908;DHT22;7545;52.092;7.006;2023-05-14T10:13:11;21.50;99.90
14908;DHT22;7545;52.092;7.006;2023-05-14T10:15:48;21.60;99.90
14908;DHT22;7545;52.092;7.006;2023-05-14T10:18:18;21.70;99.90
14908;DHT22;7545;52.092;7.006;2023-05-14T10:20:50;21.80;99.90
14908;DHT22;7545;52.092;7.006;2023-05-14T10:23:18;21.80;99.90
14908;DHT22;7545;52.092;7.006;2023-05-14T10:25:44;21.80;99.90
14908;DHT22;7545;52.092;7.006;2023-05-14T10:28:10;22.00;99.90
14908;DHT22;7545;52.092;7.006;2023-05-14T10:30:42;22.10;99.90
14908;DHT22;7545;52.092;7.006;2023-05-14T10:33:12;22.10;99.90
14908;DHT22;7545;52.092;7.006;2023-05-14T10:38:24;22.30;99.90
14908;DHT22;7545;52.092;7.006;2023-05-14T10:40:54;22.40;99.90
14908;DHT22;7545;52.092;7.006;2023-05-14T10:43:20;22.40;99.90
14908;DHT22;7545;52.092;7.006;2023-05-14T10:45:47;22.50;99.90
14908;DHT22;7545;52.092;7.006;2023-05-14T10:48:13;22.60;99.90
14908;DHT22;7545;52.092;7.006;2023-05-14T10:50:40;22.70;99.90
14908;DHT22;7545;52.092;7.006;2023-05-14T10:53:10;22.80;99.90
14908;DHT22;7545;52.092;7.006;2023-05-14T10:55:37;22.90;99.90
14908;DHT22;7545;52.092;7.006;2023-05-14T10:58:03;22.90;99.90
14908;DHT22;7545;52.092;7.006;2023-05-14T11:00:32;22.90;99.90
14908;DHT22;7545;52.092;7.006;2023-05-14T11:02:59;23.00;99.90
14908;DHT22;7545;52.092;7.006;2023-05-14T11:05:27;23.00;99.90
14908;DHT22;7545;52.092;7.006;2023-05-14T11:07:56;22.90;99.90
14908;DHT22;7545;52.092;7.006;2023-05-14T11:10:22;22.90;99.90
14908;DHT22;7545;52.092;7.006;2023-05-14T11:12:55;22.90;99.90
14908;DHT22;7545;52.092;7.006;2023-05-14T11:15:22;23.00;99.90
14908;DHT22;7545;52.092;7.006;2023-05-14T11:17:50;23.00;99.90
14908;DHT22;7545;52.092;7.006;2023-05-14T11:20:16;23.00;99.90
14908;DHT22;7545;52.092;7.006;2023-05-14T11:22:42;23.00;99.90
14908;DHT22;7545;52.092;7.006;2023-05-14T11:25:09;23.00;99.90
14908;DHT22;7545;52.092;7.006;2023-05-14T11:27:36;23.00;99.90
14908;DHT22;7545;52.092;7.006;2023-05-14T11:30:02;23.00;99.90
14908;DHT22;7545;52.092;7.006;2023-05-14T11:32:31;23.10;99.90
14908;DHT22;7545;52.092;7.006;2023-05-14T11:34:57;23.10;99.90
14908;DHT22;7545;52.092;7.006;2023-05-14T11:37:23;23.20;99.90
14908;DHT22;7545;52.092;7.006;2023-05-14T11:39:52;23.20;99.90
14908;DHT22;7545;52.092;7.006;2023-05-14T11:42:19;23.30;99.90
14908;DHT22;7545;52.092;7.006;2023-05-14T11:44:46;23.40;99.90
14908;DHT22;7545;52.092;7.006;2023-05-14T11:47:13;23.50;99.90
14908;DHT22;7545;52.092;7.006;2023-05-14T11:49:40;23.70;99.90
14908;DHT22;7545;52.092;7.006;2023-05-14T11:52:08;23.80;99.90
14908;DHT22;7545;52.092;7.006;2023-05-14T11:54:39;23.80;99.90
14908;DHT22;7545;52.092;7.006;2023-05-14T11:57:13;23.90;99.90
14908;DHT22;7545;52.092;7.006;2023-05-14T11:59:39;24.00;99.90
14908;DHT22;7545;52.092;7.006;2023-05-14T12:02:08;24.10;99.90
14908;DHT22;7545;52.092;7.006;2023-05-14T12:04:35;24.10;99.20
14908;DHT22;7545;52.092;7.006;2023-05-14T12:07:07;24.00;97.40
14908;DHT22;7545;52.092;7.006;2023-05-14T12:09:36;24.00;99.90
14908;DHT22;7545;52.092;7.006;2023-05-14T12:12:08;24.10;99.90
14908;DHT22;7545;52.092;7.006;2023-05-14T12:14:41;24.10;99.90
14908;DHT22;7545;52.092;7.006;2023-05-14T12:17:25;24.20;99.90
14908;DHT22;7545;52.092;7.006;2023-05-14T12:19:51;24.20;98.90
14908;DHT22;7545;52.092;7.006;2023-05-14T12:22:19;24.20;97.70
14908;DHT22;7545;52.092;7.006;2023-05-14T12:24:55;24.30;97.80
14908;DHT22;7545;52.092;7.006;2023-05-14T12:27:22;24.30;97.70
14908;DHT22;7545;52.092;7.006;2023-05-14T12:29:49;24.30;97.10
14908;DHT22;7545;52.092;7.006;2023-05-14T12:32:17;24.20;94.50
14908;DHT22;7545;52.092;7.006;2023-05-14T12:34:44;24.20;94.70
14908;DHT22;7545;52.092;7.006;2023-05-14T12:37:09;24.20;92.40
14908;DHT22;7545;52.092;7.006;2023-05-14T12:39:35;24.20;91.50
14908;DHT22;7545;52.092;7.006;2023-05-14T12:42:01;24.20;92.00
14908;DHT22;7545;52.092;7.006;2023-05-14T12:44:27;24.30;90.90
14908;DHT22;7545;52.092;7.006;2023-05-14T12:46:53;24.40;91.50
14908;DHT22;7545;52.092;7.006;2023-05-14T12:49:18;24.40;91.50
14908;DHT22;7545;52.092;7.006;2023-05-14T12:51:44;24.50;91.80
14908;DHT22;7545;52.092;7.006;2023-05-14T12:54:11;24.60;92.50
14908;DHT22;7545;52.092;7.006;2023-05-14T12:56:37;24.70;92.90
14908;DHT22;7545;52.092;7.006;2023-05-14T12:59:03;24.80;93.20
14908;DHT22;7545;52.092;7.006;2023-05-14T13:01:29;24.90;92.80
14908;DHT22;7545;52.092;7.006;2023-05-14T13:03:54;24.90;92.80
14908;DHT22;7545;52.092;7.006;2023-05-14T13:06:20;25.00;93.00
14908;DHT22;7545;52.092;7.006;2023-05-14T13:08:46;25.10;93.20
14908;DHT22;7545;52.092;7.006;2023-05-14T13:11:12;25.10;92.60
14908;DHT22;7545;52.092;7.006;2023-05-14T13:13:37;25.10;91.60
14908;DHT22;7545;52.092;7.006;2023-05-14T13:16:03;25.10;91.40
14908;DHT22;7545;52.092;7.006;2023-05-14T13:18:29;25.10;91.70
14908;DHT22;7545;52.092;7.006;2023-05-14T13:20:54;25.10;91.50
14908;DHT22;7545;52.092;7.006;2023-05-14T13:23:20;25.20;91.90
14908;DHT22;7545;52.092;7.006;2023-05-14T13:25:46;25.20;90.00
14908;DHT22;7545;52.092;7.006;2023-05-14T13:28:11;25.00;88.30
14908;DHT22;7545;52.092;7.006;2023-05-14T13:30:37;24.90;88.40
14908;DHT22;7545;52.092;7.006;2023-05-14T13:33:04;24.90;89.70
14908;DHT22;7545;52.092;7.006;2023-05-14T13:35:30;24.90;89.10
14908;DHT22;7545;52.092;7.006;2023-05-14T13:37:55;24.80;88.80
14908;DHT22;7545;52.092;7.006;2023-05-14T13:40:21;25.00;90.30
14908;DHT22;7545;52.092;7.006;2023-05-14T13:42:46;25.10;90.90
14908;DHT22;7545;52.092;7.006;2023-05-14T13:45:12;25.20;90.40
14908;DHT22;7545;52.092;7.006;2023-05-14T13:47:38;25.20;90.70
14908;DHT22;7545;52.092;7.006;2023-05-14T13:50:04;25.20;90.40
14908;DHT22;7545;52.092;7.006;2023-05-14T13:52:29;25.10;90.80
14908;DHT22;7545;52.092;7.006;2023-05-14T13:54:55;25.00;91.10
14908;DHT22;7545;52.092;7.006;2023-05-14T13:57:21;25.00;92.00
14908;DHT22;7545;52.092;7.006;2023-05-14T13:59:47;24.90;92.10
14908;DHT22;7545;52.092;7.006;2023-05-14T14:02:13;24.80;91.70
14908;DHT22;7545;52.092;7.006;2023-05-14T14:04:39;24.70;91.10
14908;DHT22;7545;52.092;7.006;2023-05-14T14:07:05;24.60;91.00
14908;DHT22;7545;52.092;7.006;2023-05-14T14:09:30;24.50;91.00
14908;DHT22;7545;52.092;7.006;2023-05-14T14:12:01;24.40;91.50
14908;DHT22;7545;52.092;7.006;2023-05-14T14:14:27;24.30;91.50
14908;DHT22;7545;52.092;7.006;2023-05-14T14:16:53;24.10;89.90
14908;DHT22;7545;52.092;7.006;2023-05-14T14:19:18;24.00;90.10
14908;DHT22;7545;52.092;7.006;2023-05-14T14:21:44;24.00;91.60
14908;DHT22;7545;52.092;7.006;2023-05-14T14:24:10;24.00;92.60
14908;DHT22;7545;52.092;7.006;2023-05-14T14:26:36;24.00;93.10
14908;DHT22;7545;52.092;7.006;2023-05-14T14:29:02;24.00;92.10
14908;DHT22;7545;52.092;7.006;2023-05-14T14:31:27;24.00;91.40
14908;DHT22;7545;52.092;7.006;2023-05-14T14:33:53;23.90;91.50
14908;DHT22;7545;52.092;7.006;2023-05-14T14:36:19;23.90;91.10
14908;DHT22;7545;52.092;7.006;2023-05-14T14:38:44;23.80;90.30
14908;DHT22;7545;52.092;7.006;2023-05-14T14:41:10;23.70;87.60
14908;DHT22;7545;52.092;7.006;2023-05-14T14:43:37;23.50;88.10
14908;DHT22;7545;52.092;7.006;2023-05-14T14:46:04;23.50;90.30
14908;DHT22;7545;52.092;7.006;2023-05-14T14:48:31;23.50;90.60
14908;DHT22;7545;52.092;7.006;2023-05-14T14:51:04;23.50;91.10
14908;DHT22;7545;52.092;7.006;2023-05-14T14:53:32;23.40;90.50
14908;DHT22;7545;52.092;7.006;2023-05-14T14:55:58;23.30;88.70
14908;DHT22;7545;52.092;7.006;2023-05-14T14:58:25;23.20;88.60
14908;DHT22;7545;52.092;7.006;2023-05-14T15:00:53;23.20;89.50
14908;DHT22;7545;52.092;7.006;2023-05-14T15:03:19;23.10;89.70
14908;DHT22;7545;52.092;7.006;2023-05-14T15:05:45;23.10;89.30
14908;DHT22;7545;52.092;7.006;2023-05-14T15:08:11;23.10;90.10
14908;DHT22;7545;52.092;7.006;2023-05-14T15:10:37;23.10;89.40
14908;DHT22;7545;52.092;7.006;2023-05-14T15:13:04;23.10;89.40
14908;DHT22;7545;52.092;7.006;2023-05-14T15:15:31;23.10;90.30
14908;DHT22;7545;52.092;7.006;2023-05-14T15:17:57;23.20;91.40
14908;DHT22;7545;52.092;7.006;2023-05-14T15:20:23;23.20;91.90
14908;DHT22;7545;52.092;7.006;2023-05-14T15:22:48;23.30;91.40
14908;DHT22;7545;52.092;7.006;2023-05-14T15:25:17;23.20;91.80
14908;DHT22;7545;52.092;7.006;2023-05-14T15:27:43;23.20;91.40
14908;DHT22;7545;52.092;7.006;2023-05-14T15:30:09;23.20;92.20
14908;DHT22;7545;52.092;7.006;2023-05-14T15:32:35;23.30;92.90
14908;DHT22;7545;52.092;7.006;2023-05-14T15:35:01;23.20;91.80
14908;DHT22;7545;52.092;7.006;2023-05-14T15:37:26;23.20;90.50
14908;DHT22;7545;52.092;7.006;2023-05-14T15:39:52;23.10;91.20
14908;DHT22;7545;52.092;7.006;2023-05-14T15:42:18;23.10;90.80
14908;DHT22;7545;52.092;7.006;2023-05-14T15:44:45;23.00;90.50
14908;DHT22;7545;52.092;7.006;2023-05-14T15:47:10;23.00;90.70
14908;DHT22;7545;52.092;7.006;2023-05-14T15:49:36;23.00;90.60
14908;DHT22;7545;52.092;7.006;2023-05-14T15:52:02;23.00;90.60